Croton, Michigan
Current Conditions -  °F | °C
As of 7:11 PM on Friday 28 Nov 2014 (Local Time) from KFFX Reporting Station
Overcast Overcast  
Wind Chill: 18°   Ceiling: 3100
Heat Index: 25°   Visibility: 10mi
Dew Point: 19°   Wind: 6mph
Humidity: 77%   Direction: 130°SE
Pressure: 30.04"   Gusts: NA
Location:  43.4316°N, 85.6502°W
Report Text: KFFX 290011Z AUTO 13005KT 10SM OVC031 M04/M07 A3004 RMK AO2 T10401075
Loading
Personal Weather Stations






























Interactive Weather Map New forecast layout! Learn more

10-Day Weather Forecast

Advertisements
Track Severe Weather on mobile